AirNav   Everest Fuels
 
 484 users online  

1NA8 Preszler Airstrip
Braddock, North Dakota, USA

GOING TO BRADDOCK?


FAA INFORMATION EFFECTIVE 16 JULY 2020

Location

FAA Identifier: 1NA8
Lat/Long: 46-41-25.9500N 100-05-43.3890W
46-41.432500N 100-05.723150W
46.6905417,-100.0953858
(estimated)
Elevation: 1795 ft. / 547 m (estimated)
Variation: 09E (1985)
From city: 8 miles N of BRADDOCK, ND
Time zone: UTC -5 (UTC -6 during Standard Time)
Zip code: 58560

Airport Operations

Airport use: Private use. Permission required prior to landing
Activation date: 12/1983
Control tower: no
ARTCC: MINNEAPOLIS CENTER
FSS: GRAND FORKS FLIGHT SERVICE STATION
Attendance: UNATNDD
Wind indicator: yes
Segmented circle: no

Nearby radio navigation aids

VOR radial/distance  VOR name  Freq  Var
BISr088/23.8BISMARCK VOR/DME116.5012E

Airport Services

Runway Information

Runway 8/26

Dimensions: 2250 x 80 ft. / 686 x 24 m
Surface: turf
RUNWAY 8  RUNWAY 26
Traffic pattern: leftleft
Obstructions: fencefence

Airport Ownership and Management from official FAA records

Ownership: Privately-owned
Owner: TERENCE PRESZLER
43800 102ND AVE SE
BRADDOCK, ND 58524
Phone 701-332-6620
Manager: JOEL PRESZLER
43800 102ND AVE SE
BRADDOCK, ND 58524
Phone (701) 332-6442

Airport Operational Statistics

Aircraft based on the field: 1
Single engine airplanes: 1
    

Additional Remarks

FOR CD CTC MINNEAPOLIS ARTCC AT 651-463-5588.

Instrument Procedures

There are no published instrument procedures at 1NA8.

Some nearby airports with instrument procedures:

KBIS - Bismarck Municipal Airport (27 nm W)
7L2 - Linton Municipal Airport (29 nm S)
Y19 - Mandan Municipal Airport (33 nm W)
46D - Carrington Municipal Airport (60 nm NE)
51D - Edgeley Municipal Airport (60 nm E)
 
Loc | Ops | Rwys | IFR | FBO | Links
Com | Nav | Svcs | Stats | Notes

Bismarck Aero Center
AirBoss

 
Area around 1NA8 (Preszler Airstrip)
 
Road maps at: MapQuest Bing Google
 
Aerial photo
No photo
 
Sectional chart

 
Airport distance calculator
Flying to Preszler Airstrip? Find the distance to fly.

From to 1NA8

Sunrise and sunset
Times for 06-Aug-2020
 Local
(UTC-5)
 Zulu
(UTC)
Morning civil twilight05:5510:55
Sunrise06:2911:29
Sunset21:0302:03
Evening civil twilight21:3702:37

Current date and time
Zulu (UTC)  06-Aug-2020 10:36:31
Local (UTC-5)  06-Aug-2020 05:36:31
 
METAR
KBIS 
27nm W 
060952Z AUTO 00000KT 10SM CLR 16/16 A2996 RMK AO2 SLP138 T01610156 $
K7L2 
29nm S 
061015Z AUTO 13004KT M1/4SM FG OVC002 14/14 A2998 RMK AO2
KY19 
33nm W 
061015Z AUTO 19003KT 2 1/2SM BR CLR 14/14 A2996 RMK AO2
TAF
KBIS 
27nm W 
060526Z 0606/0706 VRB05KT P6SM SKC FM061200 VRB05KT P6SM VCFG FEW050 FM061500 14007KT P6SM SKC
NOTAMs
Click for the latest NOTAMs
NOTAMs are issued by the DoD/FAA and will open in a separate window not controlled by AirNav.

 

 
 

Would you like to see your business listed on this page?

 If your business provides an interesting product or service to pilots, flight crews, aircraft, or users of the Preszler Airstrip, you should consider listing it here.  To start the listing process, click on the button below
 
Add a business
 

Other Pages about Preszler Airstrip

Update a link
 
Copyright © AirNav, LLC. All rights reserved. Privacy Policy  Contact